Time;durP1;ratioP1;P1;durP2;ratioP2;P2;SDS_P1;SDS_P2;PMS_P1;PMS_P2;Temp;Humidity;BMP_temperature;BMP_pressure;BME280_temperature;BME280_humidity;BME280_pressure;Samples;Min_cycle;Max_cycle;Signal;HPM_P1;HPM_P2
2023/10/06 00:00:42;;;;;;;3.23;1.60;;;;;;;;;;5036783;28;20940;-68
2023/10/06 00:03:13;;;;;;;3.20;1.70;;;;;;;;;;5037504;28;22300;-68
2023/10/06 00:05:40;;;;;;;6.13;1.63;;;;;;;;;;5038712;28;20477;-67
2023/10/06 00:08:10;;;;;;;4.03;1.80;;;;;;;;;;5041445;28;20967;-68
2023/10/06 00:10:38;;;;;;;2.40;1.33;;;;;;;;;;5039951;28;20455;-67
2023/10/06 00:13:06;;;;;;;2.53;1.40;;;;;;;;;;5036579;28;20466;-68
2023/10/06 00:15:38;;;;;;;9.10;2.00;;;;;;;;;;5030376;28;20497;-66
2023/10/06 00:18:07;;;;;;;4.37;1.77;;;;;;;;;;5034372;28;20454;-68
2023/10/06 00:20:45;;;;;;;2.40;1.60;;;;;;;;;;5032880;28;20502;-68
2023/10/06 00:23:14;;;;;;;4.43;1.80;;;;;;;;;;5033059;28;20559;-69
2023/10/06 00:25:43;;;;;;;3.30;1.90;;;;;;;;;;5033315;28;20541;-67
2023/10/06 00:28:19;;;;;;;2.30;1.20;;;;;;;;;;5033638;28;20462;-67
2023/10/06 00:30:50;;;;;;;4.10;1.80;;;;;;;;;;5030779;28;20457;-68
2023/10/06 00:33:19;;;;;;;3.43;1.47;;;;;;;;;;5030276;28;20458;-68
2023/10/06 00:35:48;;;;;;;6.23;2.17;;;;;;;;;;5030912;28;20455;-68
2023/10/06 00:38:17;;;;;;;3.50;2.10;;;;;;;;;;5031115;28;20464;-68
2023/10/06 00:40:51;;;;;;;5.63;1.33;;;;;;;;;;5030834;28;21282;-68
2023/10/06 00:43:21;;;;;;;2.83;1.30;;;;;;;;;;5035267;28;20523;-68
2023/10/06 00:45:49;;;;;;;4.27;1.80;;;;;;;;;;5031128;28;20473;-68
2023/10/06 00:48:17;;;;;;;4.40;2.20;;;;;;;;;;5033649;28;20457;-68
2023/10/06 00:50:44;;;;;;;3.60;1.90;;;;;;;;;;5030058;28;20462;-68
2023/10/06 00:53:13;;;;;;;4.90;2.03;;;;;;;;;;5033285;28;20549;-67
2023/10/06 00:55:41;;;;;;;2.27;1.40;;;;;;;;;;5031798;28;20470;-68
2023/10/06 00:58:10;;;;;;;4.47;1.87;;;;;;;;;;5032273;28;20461;-68
2023/10/06 01:00:37;;;;;;;3.80;1.67;;;;;;;;;;5033574;28;20473;-68
2023/10/06 01:03:14;;;;;;;4.53;1.50;;;;;;;;;;5031766;28;21061;-67
2023/10/06 01:05:44;;;;;;;3.53;1.70;;;;;;;;;;5031121;28;20477;-68
2023/10/06 01:08:12;;;;;;;4.07;1.70;;;;;;;;;;5031546;28;20466;-67
2023/10/06 01:10:40;;;;;;;2.73;1.33;;;;;;;;;;5033276;28;20553;-67
2023/10/06 01:13:12;;;;;;;3.10;1.47;;;;;;;;;;5031560;28;20992;-68
2023/10/06 01:15:48;;;;;;;3.37;1.30;;;;;;;;;;5033639;28;20474;-66
2023/10/06 01:18:23;;;;;;;5.20;1.23;;;;;;;;;;5032858;28;20559;-68
2023/10/06 01:20:50;;;;;;;5.20;2.80;;;;;;;;;;5031605;28;20473;-68
2023/10/06 01:23:21;;;;;;;5.53;2.57;;;;;;;;;;5032911;28;20803;-67
2023/10/06 01:25:53;;;;;;;2.60;1.40;;;;;;;;;;5028999;28;20458;-68
2023/10/06 01:28:20;;;;;;;2.50;1.20;;;;;;;;;;5035447;28;20549;-67
2023/10/06 01:30:47;;;;;;;2.90;1.37;;;;;;;;;;5029252;28;20899;-68
2023/10/06 01:33:14;;;;;;;6.10;1.70;;;;;;;;;;5032901;28;20465;-66
2023/10/06 01:35:43;;;;;;;3.43;1.63;;;;;;;;;;5031207;28;20478;-67
2023/10/06 01:38:22;;;;;;;6.67;1.50;;;;;;;;;;5033092;28;20549;-67
2023/10/06 01:40:52;;;;;;;2.50;1.37;;;;;;;;;;5032092;28;20564;-68
2023/10/06 01:43:22;;;;;;;4.07;2.30;;;;;;;;;;5031036;28;21182;-68
2023/10/06 01:45:50;;;;;;;2.40;1.20;;;;;;;;;;5031067;28;20458;-67
2023/10/06 01:48:23;;;;;;;3.83;1.93;;;;;;;;;;5030982;28;20450;-67
2023/10/06 01:50:50;;;;;;;5.20;2.07;;;;;;;;;;5029392;28;20565;-67
2023/10/06 01:53:18;;;;;;;3.47;1.33;;;;;;;;;;5030755;28;20473;-68
2023/10/06 01:55:49;;;;;;;3.60;1.60;;;;;;;;;;5036765;28;20469;-65
2023/10/06 01:58:17;;;;;;;2.23;1.23;;;;;;;;;;5033709;28;20470;-67
2023/10/06 02:00:48;;;;;;;4.60;2.30;;;;;;;;;;5031106;28;20610;-67
2023/10/06 02:03:21;;;;;;;3.03;1.50;;;;;;;;;;5029176;28;20493;-68
2023/10/06 02:05:48;;;;;;;3.00;1.33;;;;;;;;;;5028910;28;20875;-67
2023/10/06 02:08:21;;;;;;;2.63;1.40;;;;;;;;;;5034775;28;20466;-68
2023/10/06 02:10:50;;;;;;;3.70;1.73;;;;;;;;;;5029574;28;20542;-67
2023/10/06 02:13:21;;;;;;;3.90;1.50;;;;;;;;;;5030703;28;20515;-68
2023/10/06 02:15:48;;;;;;;4.70;2.00;;;;;;;;;;5028618;28;20462;-67
2023/10/06 02:18:15;;;;;;;2.37;1.17;;;;;;;;;;5032217;28;22183;-67
2023/10/06 02:20:45;;;;;;;3.80;1.40;;;;;;;;;;5030011;28;20600;-67
2023/10/06 02:23:14;;;;;;;3.87;1.70;;;;;;;;;;5029504;28;20454;-68
2023/10/06 02:25:41;;;;;;;2.67;1.30;;;;;;;;;;5028676;28;20470;-67
2023/10/06 02:28:09;;;;;;;8.10;2.43;;;;;;;;;;5030321;28;20939;-67
2023/10/06 02:30:39;;;;;;;3.47;1.73;;;;;;;;;;5030974;28;20461;-67
2023/10/06 02:33:06;;;;;;;2.73;1.50;;;;;;;;;;5029139;28;20941;-68
2023/10/06 02:35:35;;;;;;;5.80;1.50;;;;;;;;;;5030719;28;21237;-67
2023/10/06 02:38:05;;;;;;;3.77;1.90;;;;;;;;;;5028863;28;20555;-67
2023/10/06 02:40:44;;;;;;;3.47;2.10;;;;;;;;;;5028904;28;20478;-69
2023/10/06 02:43:13;;;;;;;3.23;1.50;;;;;;;;;;5029069;28;20462;-69
2023/10/06 02:45:41;;;;;;;3.10;1.77;;;;;;;;;;5029781;28;20605;-68
2023/10/06 02:48:15;;;;;;;4.40;1.43;;;;;;;;;;5028906;28;20458;-68
2023/10/06 02:50:45;;;;;;;3.13;1.30;;;;;;;;;;5032279;28;20462;-68
2023/10/06 02:53:20;;;;;;;6.70;1.40;;;;;;;;;;5031610;28;20469;-68
2023/10/06 02:55:55;;;;;;;4.57;1.90;;;;;;;;;;5030568;28;21317;-68
2023/10/06 02:58:26;;;;;;;2.97;1.53;;;;;;;;;;5034300;28;20975;-68
2023/10/06 03:00:55;;;;;;;3.17;1.53;;;;;;;;;;5030633;28;20478;-68
2023/10/06 03:03:27;;;;;;;5.80;2.23;;;;;;;;;;5031008;28;20465;-69
2023/10/06 03:05:55;;;;;;;7.00;2.00;;;;;;;;;;5030255;28;21061;-68
2023/10/06 03:08:27;;;;;;;2.53;1.47;;;;;;;;;;5033581;28;20462;-68
2023/10/06 03:10:54;;;;;;;3.57;1.73;;;;;;;;;;5029568;28;20449;-68
2023/10/06 03:13:32;;;;;;;4.23;1.50;;;;;;;;;;5030727;28;20466;-68
2023/10/06 03:16:00;;;;;;;3.77;1.57;;;;;;;;;;5033081;28;20488;-69
2023/10/06 03:18:28;;;;;;;4.20;1.20;;;;;;;;;;5030757;28;20462;-68
2023/10/06 03:21:04;;;;;;;2.53;1.67;;;;;;;;;;5030475;28;20477;-67
2023/10/06 03:23:36;;;;;;;2.23;1.30;;;;;;;;;;5032245;28;20908;-67
2023/10/06 03:26:04;;;;;;;4.73;2.03;;;;;;;;;;5032793;28;20462;-67
2023/10/06 03:28:32;;;;;;;3.83;1.80;;;;;;;;;;5030528;28;20468;-66
2023/10/06 03:31:09;;;;;;;7.90;2.80;;;;;;;;;;5031346;28;20921;-67
2023/10/06 03:33:38;;;;;;;3.80;1.77;;;;;;;;;;5031225;28;20481;-68
2023/10/06 03:36:05;;;;;;;2.60;1.40;;;;;;;;;;5035314;28;20517;-68
2023/10/06 03:38:37;;;;;;;5.10;1.40;;;;;;;;;;5047175;28;20462;-68
2023/10/06 03:41:26;;;;;;;3.07;2.13;;;;;;;;;;5053580;28;20535;-68
2023/10/06 03:43:55;;;;;;;3.83;1.93;;;;;;;;;;5042016;28;20828;-69
2023/10/06 03:46:24;;;;;;;4.93;1.90;;;;;;;;;;5061488;28;20884;-67
2023/10/06 03:48:53;;;;;;;2.80;1.87;;;;;;;;;;5047003;28;20449;-67
2023/10/06 03:51:21;;;;;;;6.87;2.53;;;;;;;;;;5054348;28;20438;-67
2023/10/06 03:53:49;;;;;;;5.30;1.47;;;;;;;;;;5054320;28;20484;-67
2023/10/06 03:56:17;;;;;;;3.50;2.00;;;;;;;;;;5044961;28;20494;-67
2023/10/06 03:58:48;;;;;;;4.20;2.00;;;;;;;;;;5039700;28;20828;-68
2023/10/06 04:01:19;;;;;;;3.53;1.90;;;;;;;;;;5044435;28;20478;-67
2023/10/06 04:03:53;;;;;;;6.00;1.77;;;;;;;;;;5051196;28;20477;-68
2023/10/06 04:06:23;;;;;;;3.83;2.10;;;;;;;;;;5054271;28;20512;-68
2023/10/06 04:08:52;;;;;;;3.10;1.83;;;;;;;;;;5054256;28;20442;-67
2023/10/06 04:11:19;;;;;;;2.67;1.60;;;;;;;;;;5051365;28;22224;-67
2023/10/06 04:13:47;;;;;;;2.87;1.77;;;;;;;;;;5053967;28;20462;-68
2023/10/06 04:16:14;;;;;;;3.33;1.70;;;;;;;;;;5053064;28;20469;-67
2023/10/06 04:18:47;;;;;;;2.87;1.90;;;;;;;;;;5052635;28;20529;-68
2023/10/06 04:21:17;;;;;;;3.80;1.63;;;;;;;;;;5042476;28;20477;-67
2023/10/06 04:23:44;;;;;;;6.20;2.77;;;;;;;;;;5039187;28;20485;-67
2023/10/06 04:26:14;;;;;;;10.47;3.47;;;;;;;;;;5041720;28;20465;-67
2023/10/06 04:28:41;;;;;;;6.67;1.70;;;;;;;;;;5042458;28;20462;-68
2023/10/06 04:31:08;;;;;;;9.30;2.17;;;;;;;;;;5040707;28;20508;-68
2023/10/06 04:33:35;;;;;;;2.93;1.93;;;;;;;;;;5039834;28;21468;-67
2023/10/06 04:36:07;;;;;;;2.83;1.60;;;;;;;;;;5039288;28;20986;-68
2023/10/06 04:38:37;;;;;;;2.80;1.80;;;;;;;;;;5039171;28;20463;-68
2023/10/06 04:41:06;;;;;;;2.17;1.07;;;;;;;;;;5039060;28;20519;-69
2023/10/06 04:43:34;;;;;;;3.60;2.13;;;;;;;;;;5038142;28;20512;-69
2023/10/06 04:46:05;;;;;;;3.80;1.50;;;;;;;;;;5039507;28;20462;-68
2023/10/06 04:48:32;;;;;;;3.17;1.30;;;;;;;;;;5037405;28;20983;-68
2023/10/06 04:51:02;;;;;;;2.97;1.77;;;;;;;;;;5038477;28;20984;-68
2023/10/06 04:53:32;;;;;;;5.80;2.20;;;;;;;;;;5039754;28;20545;-69
2023/10/06 04:56:02;;;;;;;3.63;1.63;;;;;;;;;;5037947;28;20473;-68
2023/10/06 04:58:30;;;;;;;6.20;3.30;;;;;;;;;;5038870;28;20470;-71
2023/10/06 05:00:59;;;;;;;3.70;2.37;;;;;;;;;;5037879;28;20486;-70
2023/10/06 05:03:27;;;;;;;5.63;2.43;;;;;;;;;;5038561;28;20454;-70
2023/10/06 05:05:56;;;;;;;4.20;2.13;;;;;;;;;;5037220;28;20964;-71
2023/10/06 05:08:24;;;;;;;3.10;2.10;;;;;;;;;;5038751;28;20458;-70
2023/10/06 05:10:51;;;;;;;4.57;2.37;;;;;;;;;;5036669;28;20461;-71
2023/10/06 05:13:20;;;;;;;6.13;2.40;;;;;;;;;;5038269;28;20454;-70
2023/10/06 05:15:47;;;;;;;3.57;1.50;;;;;;;;;;5036234;28;20453;-70
2023/10/06 05:18:16;;;;;;;5.13;2.43;;;;;;;;;;5038989;28;20455;-70
2023/10/06 05:20:43;;;;;;;3.80;2.40;;;;;;;;;;5038792;28;20941;-70
2023/10/06 05:23:14;;;;;;;3.90;2.17;;;;;;;;;;5036841;28;20465;-68
2023/10/06 05:25:41;;;;;;;4.73;2.53;;;;;;;;;;5038970;28;20469;-70
2023/10/06 05:28:10;;;;;;;5.47;2.80;;;;;;;;;;5037611;28;20933;-69
2023/10/06 05:30:41;;;;;;;5.13;2.33;;;;;;;;;;5037098;28;21037;-68
2023/10/06 05:33:09;;;;;;;3.40;1.93;;;;;;;;;;5037623;28;20458;-69
2023/10/06 05:35:38;;;;;;;4.60;2.57;;;;;;;;;;5039875;28;20478;-70
2023/10/06 05:38:08;;;;;;;2.80;2.20;;;;;;;;;;5037847;28;21796;-70
2023/10/06 05:40:35;;;;;;;4.80;2.50;;;;;;;;;;5037950;28;20464;-69
2023/10/06 05:43:04;;;;;;;7.20;2.43;;;;;;;;;;5037108;28;20485;-70
2023/10/06 05:45:31;;;;;;;4.37;1.60;;;;;;;;;;5037987;28;20484;-70
2023/10/06 05:48:06;;;;;;;4.10;2.10;;;;;;;;;;5038659;28;20462;-70
2023/10/06 05:50:35;;;;;;;5.20;3.27;;;;;;;;;;5037401;28;20559;-69
2023/10/06 05:53:04;;;;;;;2.30;1.43;;;;;;;;;;5038493;28;20532;-71
2023/10/06 05:55:31;;;;;;;3.70;2.60;;;;;;;;;;5038740;28;20486;-71
2023/10/06 05:58:00;;;;;;;3.80;2.10;;;;;;;;;;5037315;28;20454;-71
2023/10/06 06:00:29;;;;;;;5.57;2.17;;;;;;;;;;5037386;28;20454;-70
2023/10/06 06:02:58;;;;;;;5.70;2.70;;;;;;;;;;5034515;28;20482;-70
2023/10/06 06:05:29;;;;;;;8.10;3.60;;;;;;;;;;5037067;28;20561;-70
2023/10/06 06:07:59;;;;;;;5.97;2.30;;;;;;;;;;5037232;28;20821;-71
2023/10/06 06:10:28;;;;;;;6.60;3.20;;;;;;;;;;5037197;28;20469;-71
2023/10/06 06:12:55;;;;;;;5.23;2.27;;;;;;;;;;5036978;28;20481;-70
2023/10/06 06:15:23;;;;;;;5.17;2.63;;;;;;;;;;5038387;28;20489;-71
2023/10/06 06:17:50;;;;;;;5.40;2.77;;;;;;;;;;5036316;28;20466;-70
2023/10/06 06:20:21;;;;;;;4.70;2.77;;;;;;;;;;5035668;28;20470;-71
2023/10/06 06:22:55;;;;;;;3.97;2.10;;;;;;;;;;5037526;28;20484;-69
2023/10/06 06:25:22;;;;;;;8.10;2.87;;;;;;;;;;5036372;28;20493;-72
2023/10/06 06:27:49;;;;;;;6.20;1.57;;;;;;;;;;5038247;28;20481;-70
2023/10/06 06:30:18;;;;;;;2.97;1.60;;;;;;;;;;5036020;28;20457;-70
2023/10/06 06:32:45;;;;;;;8.23;2.60;;;;;;;;;;5034821;28;20447;-69
2023/10/06 06:35:13;;;;;;;4.73;2.27;;;;;;;;;;5037152;28;21796;-71
2023/10/06 06:37:42;;;;;;;7.70;3.50;;;;;;;;;;5036734;28;20454;-71
2023/10/06 06:40:13;;;;;;;4.70;1.90;;;;;;;;;;5041278;28;20462;-72
2023/10/06 06:42:42;;;;;;;5.87;2.47;;;;;;;;;;5052158;28;20478;-71
2023/10/06 06:45:13;;;;;;;5.00;2.30;;;;;;;;;;5050735;28;20537;-73
2023/10/06 06:47:41;;;;;;;3.90;2.47;;;;;;;;;;5051934;28;20446;-72
2023/10/06 06:50:09;;;;;;;8.03;2.40;;;;;;;;;;5052345;28;20544;-71
2023/10/06 06:52:38;;;;;;;5.17;2.40;;;;;;;;;;5049026;28;20435;-71
2023/10/06 06:55:12;;;;;;;7.50;6.23;;;;;;;;;;5040734;28;20477;-70
2023/10/06 06:57:43;;;;;;;5.40;2.87;;;;;;;;;;5037313;28;20547;-68
2023/10/06 07:00:15;;;;;;;5.30;2.33;;;;;;;;;;5034923;28;20457;-70
2023/10/06 07:02:42;;;;;;;6.30;3.03;;;;;;;;;;5033151;28;20485;-70
2023/10/06 07:05:10;;;;;;;4.97;2.60;;;;;;;;;;5035742;28;21030;-71
2023/10/06 07:07:39;;;;;;;5.67;2.30;;;;;;;;;;5034614;28;20458;-71
2023/10/06 07:10:08;;;;;;;5.17;2.07;;;;;;;;;;5036928;28;20461;-69
2023/10/06 07:12:35;;;;;;;2.50;1.70;;;;;;;;;;5037423;28;20450;-70
2023/10/06 07:15:03;;;;;;;10.03;2.87;;;;;;;;;;5038719;28;20485;-70
2023/10/06 07:17:31;;;;;;;4.73;2.80;;;;;;;;;;5041129;28;20469;-69
2023/10/06 07:20:00;;;;;;;6.13;3.30;;;;;;;;;;5036950;28;20468;-68
2023/10/06 07:22:31;;;;;;;5.53;2.73;;;;;;;;;;5037832;28;20474;-71
2023/10/06 07:24:58;;;;;;;4.03;2.43;;;;;;;;;;5042409;28;21076;-70
2023/10/06 07:27:25;;;;;;;3.60;2.37;;;;;;;;;;5044401;28;20558;-69
2023/10/06 07:29:53;;;;;;;4.27;2.90;;;;;;;;;;5047761;28;20450;-68
2023/10/06 07:32:24;;;;;;;4.50;3.30;;;;;;;;;;5046808;28;20465;-68
2023/10/06 07:34:53;;;;;;;5.00;2.40;;;;;;;;;;5043841;28;20852;-69
2023/10/06 07:37:21;;;;;;;6.30;3.30;;;;;;;;;;5039325;28;20543;-69
2023/10/06 07:39:48;;;;;;;5.20;2.60;;;;;;;;;;5035213;28;20472;-69
2023/10/06 07:42:16;;;;;;;4.20;2.47;;;;;;;;;;5032753;28;20486;-68
2023/10/06 07:44:47;;;;;;;4.80;3.00;;;;;;;;;;5034808;28;21028;-66
2023/10/06 07:47:16;;;;;;;2.70;1.70;;;;;;;;;;5032563;28;20466;-68
2023/10/06 07:49:44;;;;;;;4.97;2.63;;;;;;;;;;5033138;28;20466;-68
2023/10/06 07:52:11;;;;;;;6.30;3.13;;;;;;;;;;5035600;28;20450;-69
2023/10/06 07:54:40;;;;;;;6.50;2.80;;;;;;;;;;5033496;28;20486;-68
2023/10/06 07:57:09;;;;;;;6.30;2.33;;;;;;;;;;5033728;28;20474;-68
2023/10/06 07:59:37;;;;;;;8.60;3.23;;;;;;;;;;5034767;28;20470;-69
2023/10/06 08:02:04;;;;;;;8.97;3.60;;;;;;;;;;5034027;28;20596;-69
2023/10/06 08:04:33;;;;;;;5.17;3.33;;;;;;;;;;5033652;28;20965;-70
2023/10/06 08:07:02;;;;;;;5.73;3.03;;;;;;;;;;5032788;28;20549;-68
2023/10/06 08:09:29;;;;;;;5.83;3.03;;;;;;;;;;5032281;28;20458;-69
2023/10/06 08:12:01;;;;;;;6.10;2.57;;;;;;;;;;5032827;28;20463;-70
2023/10/06 08:14:28;;;;;;;5.87;2.57;;;;;;;;;;5033295;28;20481;-69
2023/10/06 08:16:55;;;;;;;5.70;3.10;;;;;;;;;;5033355;28;20558;-69
2023/10/06 08:19:22;;;;;;;7.13;3.30;;;;;;;;;;5033745;28;20461;-69
2023/10/06 08:21:49;;;;;;;5.10;3.20;;;;;;;;;;5030411;28;20459;-69
2023/10/06 08:24:18;;;;;;;4.93;2.90;;;;;;;;;;5029251;28;21003;-69
2023/10/06 08:26:45;;;;;;;7.10;2.77;;;;;;;;;;5028992;28;20492;-70
2023/10/06 08:29:20;;;;;;;5.00;2.50;;;;;;;;;;5034283;28;20513;-69
2023/10/06 08:31:48;;;;;;;8.10;3.30;;;;;;;;;;5033719;28;20549;-70
2023/10/06 08:34:15;;;;;;;10.77;3.73;;;;;;;;;;5031455;28;20481;-68
2023/10/06 08:36:42;;;;;;;5.07;2.97;;;;;;;;;;5032368;28;20465;-71
2023/10/06 08:39:12;;;;;;;4.33;2.80;;;;;;;;;;5036659;28;20840;-69
2023/10/06 08:41:44;;;;;;;5.57;2.80;;;;;;;;;;5032082;28;20823;-68
2023/10/06 08:44:13;;;;;;;6.63;3.23;;;;;;;;;;5033013;28;20479;-69
2023/10/06 08:46:44;;;;;;;12.10;2.90;;;;;;;;;;5033491;28;20557;-70
2023/10/06 08:49:11;;;;;;;9.40;5.63;;;;;;;;;;5033057;28;20901;-68
2023/10/06 08:51:38;;;;;;;4.83;2.40;;;;;;;;;;5031817;28;21121;-68
2023/10/06 08:54:06;;;;;;;6.80;2.70;;;;;;;;;;5033120;28;20470;-70
2023/10/06 08:56:34;;;;;;;4.27;3.17;;;;;;;;;;5037171;28;20481;-70
2023/10/06 08:59:02;;;;;;;12.20;3.13;;;;;;;;;;5030776;28;20837;-69
2023/10/06 09:01:30;;;;;;;5.67;3.20;;;;;;;;;;5036606;28;20553;-69
2023/10/06 09:04:03;;;;;;;6.60;2.40;;;;;;;;;;5039407;28;20485;-68
2023/10/06 09:06:30;;;;;;;6.73;3.30;;;;;;;;;;5040497;28;21726;-69
2023/10/06 09:08:59;;;;;;;5.20;2.37;;;;;;;;;;5040240;28;20466;-68
2023/10/06 09:11:38;;;;;;;2.80;2.20;;;;;;;;;;5037665;28;20454;-69
2023/10/06 09:14:11;;;;;;;6.53;3.07;;;;;;;;;;5031834;28;20569;-68
2023/10/06 09:16:50;;;;;;;4.73;2.30;;;;;;;;;;5038431;28;20457;-68
2023/10/06 09:19:20;;;;;;;7.30;3.30;;;;;;;;;;5038046;28;21292;-69
2023/10/06 09:22:02;;;;;;;9.70;2.90;;;;;;;;;;5040029;28;20764;-69
2023/10/06 09:24:29;;;;;;;5.70;2.70;;;;;;;;;;5038659;28;20900;-69
2023/10/06 09:26:58;;;;;;;4.90;2.37;;;;;;;;;;5038132;28;20557;-68
2023/10/06 09:29:33;;;;;;;6.13;4.33;;;;;;;;;;5037474;28;20461;-69
2023/10/06 09:32:03;;;;;;;4.73;2.80;;;;;;;;;;5039353;28;20458;-69
2023/10/06 09:34:32;;;;;;;11.47;3.70;;;;;;;;;;5037369;28;20474;-69
2023/10/06 09:37:19;;;;;;;8.97;3.20;;;;;;;;;;5037629;28;20469;-69
2023/10/06 09:39:46;;;;;;;4.83;3.00;;;;;;;;;;5039964;28;20458;-70
2023/10/06 09:42:14;;;;;;;6.03;2.97;;;;;;;;;;5038375;28;20465;-68
2023/10/06 09:44:44;;;;;;;6.27;3.43;;;;;;;;;;5037139;28;20481;-69
2023/10/06 09:47:12;;;;;;;4.23;3.00;;;;;;;;;;5037976;28;20453;-69
2023/10/06 09:49:40;;;;;;;11.47;3.33;;;;;;;;;;5038043;28;20480;-70
2023/10/06 09:52:08;;;;;;;6.10;3.47;;;;;;;;;;5038354;28;20496;-69
2023/10/06 09:54:36;;;;;;;5.00;2.73;;;;;;;;;;5036768;28;20478;-68
2023/10/06 09:57:03;;;;;;;6.10;2.77;;;;;;;;;;5037327;28;20462;-67
2023/10/06 09:59:34;;;;;;;6.20;2.60;;;;;;;;;;5039011;28;20945;-67
2023/10/06 10:02:03;;;;;;;10.93;4.27;;;;;;;;;;5034790;28;20451;-69
2023/10/06 10:04:32;;;;;;;5.60;2.77;;;;;;;;;;5038129;28;20478;-69
2023/10/06 10:07:01;;;;;;;4.00;2.80;;;;;;;;;;5038706;28;20524;-69
2023/10/06 10:09:30;;;;;;;6.10;2.90;;;;;;;;;;5038272;28;20900;-68
2023/10/06 10:12:04;;;;;;;4.47;2.47;;;;;;;;;;5036385;28;20505;-69
2023/10/06 10:14:39;;;;;;;4.17;2.30;;;;;;;;;;5036577;28;21034;-67
2023/10/06 10:17:16;;;;;;;6.57;2.53;;;;;;;;;;5037077;28;20468;-69
2023/10/06 10:19:45;;;;;;;3.60;2.30;;;;;;;;;;5036470;28;20527;-66
2023/10/06 10:22:13;;;;;;;4.33;2.23;;;;;;;;;;5036513;28;21985;-69
2023/10/06 10:24:42;;;;;;;3.70;2.40;;;;;;;;;;5036999;28;20485;-68
2023/10/06 10:27:13;;;;;;;4.17;1.93;;;;;;;;;;5038061;28;20458;-69
2023/10/06 10:29:41;;;;;;;8.80;3.00;;;;;;;;;;5037376;28;20552;-68
2023/10/06 10:32:16;;;;;;;5.00;2.90;;;;;;;;;;5037186;28;20454;-68
2023/10/06 10:35:02;;;;;;;5.47;3.40;;;;;;;;;;5036068;28;20481;-69
2023/10/06 10:37:29;;;;;;;5.37;2.70;;;;;;;;;;5036948;28;20487;-68
2023/10/06 10:39:56;;;;;;;10.43;3.53;;;;;;;;;;5036565;28;20912;-69
2023/10/06 10:42:38;;;;;;;7.00;3.10;;;;;;;;;;5035145;28;20501;-67
2023/10/06 10:45:23;;;;;;;3.80;2.23;;;;;;;;;;5037943;28;20891;-68
2023/10/06 10:47:52;;;;;;;7.20;2.50;;;;;;;;;;5036666;28;20458;-68
2023/10/06 10:50:20;;;;;;;7.50;2.93;;;;;;;;;;5034568;28;20849;-69
2023/10/06 10:52:48;;;;;;;5.53;2.80;;;;;;;;;;5036335;28;20587;-69
2023/10/06 10:55:16;;;;;;;6.17;3.37;;;;;;;;;;5037688;28;20477;-71
2023/10/06 10:57:44;;;;;;;5.00;2.23;;;;;;;;;;5037512;28;20458;-68
2023/10/06 11:00:15;;;;;;;5.20;2.50;;;;;;;;;;5037080;28;20459;-70
2023/10/06 11:02:42;;;;;;;5.50;2.80;;;;;;;;;;5036697;28;22484;-69
2023/10/06 11:05:11;;;;;;;5.73;2.60;;;;;;;;;;5036371;28;20474;-69
2023/10/06 11:07:39;;;;;;;4.23;2.73;;;;;;;;;;5036005;28;20454;-69
2023/10/06 11:10:08;;;;;;;6.80;3.03;;;;;;;;;;5037531;28;20574;-68
2023/10/06 11:12:35;;;;;;;10.77;3.80;;;;;;;;;;5034996;28;20477;-68
2023/10/06 11:15:14;;;;;;;7.10;3.47;;;;;;;;;;5038780;28;20474;-69
2023/10/06 11:17:41;;;;;;;6.10;2.70;;;;;;;;;;5040398;28;20552;-68
2023/10/06 11:20:13;;;;;;;8.03;2.10;;;;;;;;;;5040906;28;20486;-69
2023/10/06 11:22:45;;;;;;;5.60;2.80;;;;;;;;;;5038245;28;20462;-69
2023/10/06 11:25:13;;;;;;;8.07;4.73;;;;;;;;;;5035318;28;20629;-70
2023/10/06 11:27:41;;;;;;;7.73;3.03;;;;;;;;;;5036352;28;20849;-69
2023/10/06 11:30:11;;;;;;;7.60;3.10;;;;;;;;;;5037220;28;20454;-70
2023/10/06 11:32:38;;;;;;;7.40;3.47;;;;;;;;;;5036223;28;20465;-69
2023/10/06 11:35:06;;;;;;;6.07;2.63;;;;;;;;;;5034896;28;20481;-68
2023/10/06 11:37:33;;;;;;;4.67;2.00;;;;;;;;;;5036305;28;20469;-68
2023/10/06 11:40:03;;;;;;;4.00;2.20;;;;;;;;;;5033372;28;20477;-69
2023/10/06 11:42:38;;;;;;;4.07;2.43;;;;;;;;;;5035704;28;20866;-70
2023/10/06 11:45:11;;;;;;;3.20;1.70;;;;;;;;;;5036811;28;20484;-70
2023/10/06 11:47:39;;;;;;;4.80;2.67;;;;;;;;;;5037077;28;20463;-69
2023/10/06 11:50:07;;;;;;;4.37;2.30;;;;;;;;;;5035824;28;20459;-69
2023/10/06 11:52:34;;;;;;;4.50;2.50;;;;;;;;;;5034678;28;20458;-69
2023/10/06 11:55:09;;;;;;;4.20;2.30;;;;;;;;;;5043075;28;20964;-71
2023/10/06 11:57:42;;;;;;;5.10;2.50;;;;;;;;;;5050931;28;20485;-70
2023/10/06 12:00:12;;;;;;;6.67;2.87;;;;;;;;;;5046602;28;20441;-69
2023/10/06 12:02:46;;;;;;;7.93;4.00;;;;;;;;;;5049099;28;20454;-71
2023/10/06 12:05:13;;;;;;;6.57;3.10;;;;;;;;;;5041234;28;20458;-70
2023/10/06 12:07:41;;;;;;;6.40;3.67;;;;;;;;;;5045575;28;20439;-71
2023/10/06 12:10:10;;;;;;;5.03;2.30;;;;;;;;;;5035774;28;20463;-71
2023/10/06 12:12:40;;;;;;;4.93;2.43;;;;;;;;;;5048085;28;20457;-70
2023/10/06 12:15:07;;;;;;;4.13;2.33;;;;;;;;;;5054346;28;20469;-69
2023/10/06 12:17:38;;;;;;;5.40;2.60;;;;;;;;;;5054192;28;20449;-69
2023/10/06 12:20:07;;;;;;;7.73;2.50;;;;;;;;;;5049580;28;20461;-69
2023/10/06 12:22:34;;;;;;;6.47;2.80;;;;;;;;;;5049732;28;20497;-69
2023/10/06 12:25:02;;;;;;;5.33;2.60;;;;;;;;;;5050475;28;20575;-69
2023/10/06 12:27:30;;;;;;;5.33;2.60;;;;;;;;;;5054441;28;20441;-69
2023/10/06 12:29:57;;;;;;;5.60;2.80;;;;;;;;;;5053572;28;20446;-69
2023/10/06 12:32:24;;;;;;;5.13;2.63;;;;;;;;;;5052696;28;20458;-68
2023/10/06 12:34:51;;;;;;;7.27;2.37;;;;;;;;;;5052360;28;20470;-69
2023/10/06 12:37:18;;;;;;;6.40;3.43;;;;;;;;;;5049095;28;20461;-69
2023/10/06 12:39:46;;;;;;;6.50;3.17;;;;;;;;;;5047335;28;20465;-68
2023/10/06 12:42:16;;;;;;;5.33;2.80;;;;;;;;;;5051970;28;20978;-69
2023/10/06 12:44:45;;;;;;;8.00;3.30;;;;;;;;;;5053609;28;20489;-68
2023/10/06 12:47:12;;;;;;;4.73;2.37;;;;;;;;;;5052767;28;20457;-68
2023/10/06 12:49:42;;;;;;;7.10;3.00;;;;;;;;;;5050769;28;20451;-68
2023/10/06 12:52:09;;;;;;;7.50;2.60;;;;;;;;;;5051787;28;20446;-69
2023/10/06 12:54:37;;;;;;;6.97;2.60;;;;;;;;;;5052383;28;20458;-68
2023/10/06 12:57:04;;;;;;;4.97;3.03;;;;;;;;;;5047530;28;20477;-68
2023/10/06 12:59:32;;;;;;;5.23;2.57;;;;;;;;;;5053833;28;20443;-69
2023/10/06 13:02:03;;;;;;;4.70;2.57;;;;;;;;;;5044904;28;20470;-69
2023/10/06 13:04:31;;;;;;;5.43;3.00;;;;;;;;;;5053622;28;20486;-68
2023/10/06 13:06:59;;;;;;;3.50;2.20;;;;;;;;;;5053940;28;20504;-68
2023/10/06 13:09:27;;;;;;;9.07;2.70;;;;;;;;;;5050559;28;20492;-68
2023/10/06 13:11:54;;;;;;;4.40;2.87;;;;;;;;;;5044606;28;20451;-68
2023/10/06 13:14:21;;;;;;;6.33;2.53;;;;;;;;;;5047547;28;20482;-68
2023/10/06 13:16:51;;;;;;;9.97;3.10;;;;;;;;;;5053309;28;20457;-69
2023/10/06 13:19:20;;;;;;;5.83;2.97;;;;;;;;;;5048783;28;20964;-69
2023/10/06 13:21:47;;;;;;;5.60;2.53;;;;;;;;;;5052261;28;20511;-68
2023/10/06 13:24:16;;;;;;;8.50;3.33;;;;;;;;;;5053285;28;20486;-68
2023/10/06 13:26:43;;;;;;;7.97;3.60;;;;;;;;;;5053472;28;20446;-69
2023/10/06 13:29:12;;;;;;;8.30;3.40;;;;;;;;;;5040376;28;20446;-68
2023/10/06 13:31:40;;;;;;;7.13;3.10;;;;;;;;;;5044131;28;20454;-69
2023/10/06 13:34:09;;;;;;;8.73;3.47;;;;;;;;;;5041473;28;20510;-70
2023/10/06 13:36:37;;;;;;;5.73;2.20;;;;;;;;;;5051454;28;20458;-70
2023/10/06 13:39:09;;;;;;;5.60;3.10;;;;;;;;;;5050799;28;20442;-69
2023/10/06 13:41:41;;;;;;;8.20;4.07;;;;;;;;;;5052800;28;20453;-69
2023/10/06 13:44:08;;;;;;;7.40;4.03;;;;;;;;;;5052378;28;20539;-69
2023/10/06 13:46:35;;;;;;;4.40;2.30;;;;;;;;;;5048402;28;20541;-67
2023/10/06 13:49:04;;;;;;;5.73;2.80;;;;;;;;;;5045520;28;20477;-68
2023/10/06 13:51:32;;;;;;;4.60;2.70;;;;;;;;;;5049790;28;20541;-68
2023/10/06 13:54:01;;;;;;;8.63;2.80;;;;;;;;;;5043670;28;20480;-69
2023/10/06 13:56:29;;;;;;;8.17;4.30;;;;;;;;;;5047196;28;20891;-68
2023/10/06 13:58:56;;;;;;;8.53;3.83;;;;;;;;;;5052589;28;20468;-68
2023/10/06 14:01:25;;;;;;;7.70;3.20;;;;;;;;;;5051523;28;20446;-69
2023/10/06 14:03:52;;;;;;;3.30;2.03;;;;;;;;;;5052592;28;20490;-69
2023/10/06 14:06:20;;;;;;;6.83;3.10;;;;;;;;;;5052119;28;20447;-69
2023/10/06 14:08:48;;;;;;;8.63;3.10;;;;;;;;;;5052554;28;20468;-70
2023/10/06 14:11:16;;;;;;;4.93;2.53;;;;;;;;;;5052511;28;20443;-69
2023/10/06 14:13:44;;;;;;;5.90;3.47;;;;;;;;;;5051934;28;20462;-69
2023/10/06 14:16:14;;;;;;;5.03;3.00;;;;;;;;;;5051417;28;20474;-69
2023/10/06 14:18:42;;;;;;;6.17;2.70;;;;;;;;;;5046201;28;20925;-69
2023/10/06 14:21:12;;;;;;;8.60;3.50;;;;;;;;;;5038429;28;20871;-70
2023/10/06 14:23:43;;;;;;;6.97;3.00;;;;;;;;;;5051183;28;20997;-69
2023/10/06 14:26:11;;;;;;;4.23;2.33;;;;;;;;;;5051803;28;20537;-70
2023/10/06 14:28:40;;;;;;;5.60;3.37;;;;;;;;;;5052217;28;20516;-68
2023/10/06 14:31:16;;;;;;;4.73;2.67;;;;;;;;;;5039853;28;20868;-69
2023/10/06 14:33:47;;;;;;;5.40;2.50;;;;;;;;;;5048596;28;20470;-69
2023/10/06 14:36:26;;;;;;;4.73;2.33;;;;;;;;;;5047382;28;20490;-68
2023/10/06 14:47:20;;;;;;;5.63;2.60;;;;;;;;;;5043555;28;20464;-68
2023/10/06 14:49:47;;;;;;;4.30;2.50;;;;;;;;;;5048162;28;20462;-69
2023/10/06 14:52:14;;;;;;;6.43;2.73;;;;;;;;;;5050501;28;20446;-68
2023/10/06 14:54:43;;;;;;;4.60;2.10;;;;;;;;;;5044607;28;20588;-70
2023/10/06 14:57:13;;;;;;;7.57;2.43;;;;;;;;;;5050465;28;20553;-69
2023/10/06 14:59:44;;;;;;;7.13;2.57;;;;;;;;;;5054649;28;20438;-70
2023/10/06 15:02:11;;;;;;;5.63;2.20;;;;;;;;;;5056338;28;20457;-70
2023/10/06 15:04:39;;;;;;;6.87;2.70;;;;;;;;;;5053607;28;20516;-69